Time;durP1;ratioP1;P1;durP2;ratioP2;P2;SDS_P1;SDS_P2;PMS_P1;PMS_P2;Temp;Humidity;BMP_temperature;BMP_pressure;BME280_temperature;BME280_humidity;BME280_pressure;Samples;Min_cycle;Max_cycle;Signal;HPM_P1;HPM_P2
2021/09/24 00:01:39;;;;;;;3.20;2.80;;;;;;;15.51;68.74;97823.80;236212;1183;24051;-76
2021/09/24 00:06:44;;;;;;;4.20;3.10;;;;;;;15.53;68.80;97813.05;236265;1197;25155;-75
2021/09/24 00:11:47;;;;;;;3.40;3.10;;;;;;;15.55;68.59;97827.61;236423;1197;24158;-75
2021/09/24 00:16:51;;;;;;;3.50;2.80;;;;;;;15.58;68.44;97831.69;236442;1197;22841;-76
2021/09/24 00:21:57;;;;;;;3.80;2.80;;;;;;;15.61;68.08;97833.98;236001;1197;24053;-75
2021/09/24 00:27:00;;;;;;;3.30;3.00;;;;;;;15.63;67.74;97833.14;236203;1197;22686;-75
2021/09/24 00:32:04;;;;;;;4.50;2.90;;;;;;;15.63;67.47;97832.53;236213;1197;22406;-76
2021/09/24 00:37:08;;;;;;;5.40;3.50;;;;;;;15.63;67.39;97831.76;236353;1197;22594;-75
2021/09/24 00:42:10;;;;;;;3.90;2.90;;;;;;;15.65;67.35;97837.75;236421;1197;24125;-80
2021/09/24 00:47:15;;;;;;;4.40;2.80;;;;;;;15.64;67.38;97830.85;236420;1197;22427;-76
2021/09/24 00:52:19;;;;;;;3.30;3.00;;;;;;;15.60;67.36;97826.13;236217;1190;22503;-75
2021/09/24 00:57:23;;;;;;;3.40;2.90;;;;;;;15.56;67.34;97826.77;236147;1198;22442;-76
2021/09/24 01:02:25;;;;;;;3.20;2.50;;;;;;;15.52;67.42;97836.08;236521;1189;22487;-73
2021/09/24 01:07:30;;;;;;;3.50;2.60;;;;;;;15.53;67.18;97845.06;236503;1197;22428;-75
2021/09/24 01:12:34;;;;;;;2.70;2.40;;;;;;;15.59;67.26;97848.52;236302;1197;24932;-73
2021/09/24 01:17:39;;;;;;;3.80;2.40;;;;;;;15.62;67.31;97842.91;236387;1197;24600;-75
2021/09/24 01:22:43;;;;;;;2.70;2.50;;;;;;;15.65;67.08;97832.66;236667;1197;24054;-76
2021/09/24 01:27:59;;;;;;;3.40;2.30;;;;;;;15.69;67.18;97826.12;236427;1192;24179;-76
2021/09/24 01:33:08;;;;;;;2.00;1.80;;;;;;;15.73;67.26;97832.88;236449;1197;25291;-74
2021/09/24 01:38:30;;;;;;;3.20;2.30;;;;;;;15.80;66.90;97844.48;236235;1197;23933;-74
2021/09/24 01:43:35;;;;;;;2.90;2.30;;;;;;;15.85;66.95;97850.56;236428;1197;25536;-75
2021/09/24 01:48:37;;;;;;;3.20;1.90;;;;;;;15.84;67.15;97865.89;236363;1197;22526;-74
2021/09/24 01:53:43;;;;;;;2.40;1.40;;;;;;;15.83;66.95;97899.73;236390;1197;25274;-76
2021/09/24 01:59:08;;;;;;;0.80;0.70;;;;;;;15.66;66.32;97916.98;236374;1197;25223;-76
2021/09/24 02:04:23;;;;;;;4.00;0.60;;;;;;;15.37;66.91;97933.11;236662;1191;24411;-75
2021/09/24 02:09:26;;;;;;;0.60;0.40;;;;;;;14.98;68.91;97965.84;236399;1192;25314;-75
2021/09/24 02:14:28;;;;;;;0.70;0.60;;;;;;;14.32;70.95;97962.71;236151;1192;22450;-76
2021/09/24 02:19:31;;;;;;;1.90;0.70;;;;;;;13.76;72.60;97964.86;236204;1190;24028;-76
2021/09/24 02:24:47;;;;;;;0.40;0.40;;;;;;;13.41;73.58;97963.71;236043;1198;24089;-76
2021/09/24 02:29:58;;;;;;;2.80;0.70;;;;;;;13.22;74.60;97966.14;236443;1197;24063;-74
2021/09/24 02:35:01;;;;;;;2.50;0.80;;;;;;;13.12;75.34;97969.52;236515;1197;24088;-75
2021/09/24 02:40:05;;;;;;;0.60;0.40;;;;;;;13.07;76.12;97971.42;236559;1192;22426;-74
2021/09/24 02:45:08;;;;;;;3.70;0.60;;;;;;;13.07;76.60;97972.77;236512;1184;22420;-75
2021/09/24 02:50:11;;;;;;;1.40;0.60;;;;;;;13.07;76.95;97974.93;236600;1197;24011;-74
2021/09/24 02:55:15;;;;;;;2.50;1.00;;;;;;;13.08;77.07;97983.05;236399;1197;23991;-75
2021/09/24 03:00:17;;;;;;;1.80;0.90;;;;;;;13.09;77.38;97991.28;236509;1197;22444;-76
2021/09/24 03:05:21;;;;;;;2.80;1.10;;;;;;;13.11;77.64;97995.97;236290;1197;23973;-76
2021/09/24 03:10:24;;;;;;;1.50;0.90;;;;;;;13.11;77.66;97990.30;236210;1198;24086;-73
2021/09/24 03:15:28;;;;;;;2.50;1.10;;;;;;;13.14;77.57;98001.11;236171;1197;24098;-75
2021/09/24 03:20:31;;;;;;;2.30;1.30;;;;;;;13.16;77.54;98006.11;236810;1197;24043;-75
2021/09/24 03:25:34;;;;;;;2.10;1.10;;;;;;;13.17;77.40;98010.50;235989;1194;22426;-76
2021/09/24 03:30:36;;;;;;;4.20;1.40;;;;;;;13.18;77.11;98018.46;236299;1197;25199;-75
2021/09/24 03:35:39;;;;;;;2.30;0.90;;;;;;;13.19;76.78;98020.33;236414;1197;23127;-77
2021/09/24 03:40:42;;;;;;;2.50;0.90;;;;;;;13.12;76.63;98018.61;236326;1197;22416;-75
2021/09/24 03:45:45;;;;;;;2.90;0.80;;;;;;;13.01;76.35;98026.45;236220;1197;25194;-74
2021/09/24 03:50:49;;;;;;;3.90;1.10;;;;;;;12.88;76.45;98037.84;236181;1197;24116;-75
2021/09/24 03:56:18;;;;;;;3.00;1.20;;;;;;;12.75;76.39;98041.62;236229;1197;22781;-76
2021/09/24 04:01:21;;;;;;;1.10;0.70;;;;;;;12.64;76.42;98038.86;236205;1190;24033;-74
2021/09/24 04:06:24;;;;;;;3.70;1.00;;;;;;;12.53;76.31;98046.08;236434;1197;24152;-75
2021/09/24 04:11:26;;;;;;;1.50;1.00;;;;;;;12.47;76.48;98055.27;236358;1197;24040;-76
2021/09/24 04:16:30;;;;;;;4.20;1.10;;;;;;;12.43;76.35;98056.47;236225;1197;25280;-75
2021/09/24 04:21:32;;;;;;;3.80;1.30;;;;;;;12.43;75.96;98056.38;236185;1197;25313;-75
2021/09/24 04:26:41;;;;;;;2.80;1.00;;;;;;;12.43;75.39;98059.37;236335;1190;22424;-76
2021/09/24 04:31:45;;;;;;;2.40;0.90;;;;;;;12.45;74.88;98070.44;236486;1197;25177;-74
2021/09/24 04:36:58;;;;;;;3.70;1.20;;;;;;;12.48;74.58;98077.92;236459;1190;24060;-76
2021/09/24 04:42:21;;;;;;;2.00;1.20;;;;;;;12.48;74.21;98078.33;236285;1194;24554;-75
2021/09/24 04:47:24;;;;;;;3.40;1.30;;;;;;;12.45;74.00;98093.02;236803;1197;23972;-76
2021/09/24 04:52:26;;;;;;;2.90;1.20;;;;;;;12.45;73.92;98092.48;236428;1197;24576;-77
2021/09/24 04:57:36;;;;;;;3.80;1.30;;;;;;;12.46;73.74;98097.35;236534;1196;22739;-76
2021/09/24 05:02:40;;;;;;;3.00;1.10;;;;;;;12.47;73.70;98108.14;236571;1197;25061;-75
2021/09/24 05:07:43;;;;;;;4.40;1.30;;;;;;;12.50;73.55;98115.34;236620;1197;25176;-74
2021/09/24 05:12:45;;;;;;;2.80;1.10;;;;;;;12.54;73.65;98123.77;236603;1197;22444;-73
2021/09/24 05:17:49;;;;;;;2.00;1.10;;;;;;;12.58;73.43;98123.73;236481;1197;24076;-75
2021/09/24 05:22:54;;;;;;;3.10;1.00;;;;;;;12.62;73.25;98125.83;236395;1197;22464;-75
2021/09/24 05:27:56;;;;;;;3.00;1.20;;;;;;;12.63;73.16;98128.73;236532;1197;24086;-73
2021/09/24 05:32:59;;;;;;;6.40;2.00;;;;;;;12.67;72.95;98130.94;236463;1184;25307;-74
2021/09/24 05:38:02;;;;;;;2.80;1.50;;;;;;;12.67;72.93;98137.94;236642;1184;24069;-75
2021/09/24 05:43:04;;;;;;;3.30;1.40;;;;;;;12.66;72.96;98140.30;236604;1197;24028;-76
2021/09/24 05:48:07;;;;;;;3.60;1.90;;;;;;;12.69;72.95;98141.10;236780;1190;22450;-77
2021/09/24 05:53:16;;;;;;;3.80;2.20;;;;;;;12.71;73.02;98146.79;237627;1190;25182;-76
2021/09/24 05:58:26;;;;;;;5.40;1.90;;;;;;;12.73;72.91;98149.80;237133;1197;22527;-75
2021/09/24 06:03:29;;;;;;;4.70;1.90;;;;;;;12.75;72.51;98156.73;237026;1196;24120;-76
2021/09/24 06:08:32;;;;;;;6.10;1.50;;;;;;;12.77;71.92;98156.67;236873;1196;24089;-76
2021/09/24 06:13:34;;;;;;;6.90;2.20;;;;;;;12.77;71.51;98153.10;237179;1197;22521;-76
2021/09/24 06:18:39;;;;;;;3.90;1.60;;;;;;;12.79;71.61;98163.11;237064;1197;22638;-83
2021/09/24 06:23:42;;;;;;;7.30;1.80;;;;;;;12.86;71.62;98175.92;237056;1196;24656;-74
2021/09/24 06:28:45;;;;;;;4.40;1.70;;;;;;;12.89;71.51;98183.29;236998;1190;24031;-76
2021/09/24 06:33:50;;;;;;;5.10;1.70;;;;;;;12.93;71.66;98191.06;237107;1196;22670;-75
2021/09/24 06:38:52;;;;;;;6.30;2.70;;;;;;;13.00;71.73;98194.28;237828;1196;24086;-75
2021/09/24 06:43:55;;;;;;;3.70;1.50;;;;;;;13.04;71.24;98196.99;237103;1190;22439;-76
2021/09/24 06:49:12;;;;;;;7.40;1.80;;;;;;;13.07;70.83;98209.14;238098;1190;22436;-75
2021/09/24 06:54:16;;;;;;;6.10;1.70;;;;;;;13.06;70.18;98214.73;237427;1190;24168;-76
2021/09/24 06:59:20;;;;;;;5.60;1.60;;;;;;;13.11;69.66;98217.02;237193;1190;22805;-77
2021/09/24 07:04:23;;;;;;;5.70;1.80;;;;;;;13.18;69.03;98218.64;237495;1194;22620;-76
2021/09/24 07:09:25;;;;;;;4.50;1.70;;;;;;;13.27;68.50;98212.23;236990;1190;23231;-74
2021/09/24 07:14:31;;;;;;;4.40;2.30;;;;;;;13.38;68.48;98210.34;238110;1190;22551;-74
2021/09/24 07:19:35;;;;;;;4.00;1.60;;;;;;;13.53;68.13;98217.04;237578;1197;22460;-78
2021/09/24 07:24:38;;;;;;;5.80;2.00;;;;;;;13.65;67.44;98228.27;238417;1197;22543;-77
2021/09/24 07:29:41;;;;;;;6.60;2.60;;;;;;;13.60;66.74;98242.00;237484;1190;22501;-76
2021/09/24 07:34:50;;;;;;;3.60;1.70;;;;;;;13.56;66.51;98242.52;237138;1197;25202;-77
2021/09/24 07:39:56;;;;;;;6.80;2.10;;;;;;;13.63;66.45;98252.80;237117;1197;22494;-76
2021/09/24 07:45:13;;;;;;;7.00;2.20;;;;;;;13.70;66.00;98254.27;236882;1190;23980;-76
2021/09/24 07:50:33;;;;;;;4.60;2.00;;;;;;;13.76;66.21;98255.89;236868;1197;24075;-77
2021/09/24 07:55:38;;;;;;;4.90;1.70;;;;;;;13.82;66.29;98256.21;236824;1197;22437;-77
2021/09/24 08:00:40;;;;;;;6.40;2.70;;;;;;;13.83;66.11;98253.33;237181;1196;22453;-76
2021/09/24 08:05:44;;;;;;;7.30;2.30;;;;;;;13.87;66.55;98259.39;236783;1184;22444;-76
2021/09/24 08:10:47;;;;;;;5.80;1.90;;;;;;;13.97;66.92;98266.96;236856;1190;25210;-76
2021/09/24 08:15:54;;;;;;;4.60;1.80;;;;;;;14.07;66.82;98269.42;237155;1190;23570;-76
2021/09/24 08:20:59;;;;;;;4.90;2.10;;;;;;;14.17;66.60;98282.16;236597;1197;24062;-75
2021/09/24 08:26:02;;;;;;;3.20;1.70;;;;;;;14.14;65.78;98284.89;237486;1197;25108;-74
2021/09/24 08:31:04;;;;;;;4.90;1.50;;;;;;;14.09;65.21;98287.61;237092;1196;22852;-79
2021/09/24 08:36:07;;;;;;;4.40;1.70;;;;;;;14.12;64.87;98286.25;236597;1197;22463;-77
2021/09/24 08:41:10;;;;;;;3.20;1.50;;;;;;;14.18;64.31;98289.50;237241;1193;25137;-73
2021/09/24 08:46:16;;;;;;;7.40;1.90;;;;;;;14.26;64.47;98294.29;237056;1197;24040;-75
2021/09/24 08:51:20;;;;;;;5.40;1.90;;;;;;;14.42;64.07;98296.67;237251;1197;26367;-75
2021/09/24 08:56:23;;;;;;;5.90;1.80;;;;;;;14.59;64.11;98300.48;236910;1190;25126;-75
2021/09/24 09:01:26;;;;;;;4.30;1.80;;;;;;;14.77;63.31;98310.83;237775;1190;24222;-75
2021/09/24 09:06:36;;;;;;;4.10;1.70;;;;;;;14.74;62.95;98309.84;237280;1189;22423;-76
2021/09/24 09:11:39;;;;;;;4.30;1.80;;;;;;;14.76;62.64;98314.61;237504;1189;22503;-73
2021/09/24 09:16:45;;;;;;;5.80;1.70;;;;;;;14.97;62.20;98320.02;237261;1190;23011;-73
2021/09/24 09:21:52;;;;;;;4.90;1.50;;;;;;;15.06;60.90;98326.46;237391;1190;25205;-76
2021/09/24 09:27:18;;;;;;;4.70;1.70;;;;;;;15.08;60.81;98329.75;237316;1197;24041;-78
2021/09/24 09:32:23;;;;;;;5.50;1.60;;;;;;;15.07;60.33;98334.36;237118;1197;23201;-78
2021/09/24 09:37:26;;;;;;;4.90;1.80;;;;;;;14.97;60.19;98338.67;237297;1190;24116;-77
2021/09/24 09:42:37;;;;;;;4.10;1.30;;;;;;;14.89;60.52;98351.95;237127;1197;25324;-75
2021/09/24 09:47:51;;;;;;;;;;;;;;;14.86;60.80;98357.14;236998;1197;24228;-75
2021/09/24 09:53:11;;;;;;;2.40;1.20;;;;;;;14.90;61.13;98361.61;237133;1197;24561;-74
2021/09/24 09:58:14;;;;;;;3.70;1.70;;;;;;;14.94;60.97;98377.55;237184;1190;22446;-74
2021/09/24 10:03:17;;;;;;;3.80;1.40;;;;;;;14.98;61.13;98377.86;237349;1196;27297;-73
2021/09/24 10:08:30;;;;;;;5.90;1.60;;;;;;;15.04;61.04;98380.11;238660;1190;22469;-74
2021/09/24 10:14:05;;;;;;;5.40;1.40;;;;;;;15.19;61.63;98384.20;237606;1194;22459;-71
2021/09/24 10:19:13;;;;;;;3.90;1.60;;;;;;;15.38;60.69;98377.17;237515;1197;22432;-72
2021/09/24 10:24:26;;;;;;;4.00;1.40;;;;;;;15.53;60.96;98374.58;238301;1193;24123;-73
2021/09/24 10:29:31;;;;;;;4.70;2.20;;;;;;;15.70;60.63;98378.10;236865;1197;22453;-73
2021/09/24 10:35:01;;;;;;;4.20;2.10;;;;;;;15.83;60.51;98380.14;236906;1196;24858;-73
2021/09/24 10:40:22;;;;;;;6.50;2.30;;;;;;;15.73;59.43;98389.25;237227;1197;22506;-72
2021/09/24 10:45:33;;;;;;;3.30;2.00;;;;;;;15.61;59.84;98390.20;236994;1190;24045;-71
2021/09/24 10:50:38;;;;;;;6.40;2.10;;;;;;;15.69;60.21;98392.03;236664;1197;24050;-72
2021/09/24 10:55:57;;;;;;;5.30;2.20;;;;;;;15.73;58.85;98399.56;236339;1197;24261;-72
2021/09/24 11:01:08;;;;;;;4.60;1.90;;;;;;;15.64;58.28;98395.41;236362;1190;22445;-71
2021/09/24 11:06:14;;;;;;;4.20;2.00;;;;;;;15.53;58.07;98399.73;236184;1189;24059;-73
2021/09/24 11:11:21;;;;;;;6.20;1.60;;;;;;;15.45;58.50;98396.20;236448;1197;23251;-73
2021/09/24 11:16:28;;;;;;;4.10;1.80;;;;;;;15.40;58.77;98399.86;236413;1197;22535;-74
2021/09/24 11:21:31;;;;;;;4.60;1.60;;;;;;;15.38;58.68;98406.09;236505;1189;24053;-74
2021/09/24 11:26:33;;;;;;;7.40;1.70;;;;;;;15.28;58.36;98417.15;236550;1197;24047;-73
2021/09/24 11:32:04;;;;;;;2.80;1.50;;;;;;;15.26;58.72;98414.46;236766;1190;24174;-76
2021/09/24 11:37:18;;;;;;;3.90;2.00;;;;;;;15.41;58.01;98408.92;236631;1197;24087;-74
2021/09/24 11:42:20;;;;;;;5.10;1.80;;;;;;;15.49;57.08;98409.23;236471;1197;22471;-74
2021/09/24 11:47:29;;;;;;;3.80;1.40;;;;;;;15.43;56.82;98404.21;236362;1189;22460;-74
2021/09/24 11:52:51;;;;;;;3.60;1.70;;;;;;;15.30;57.86;98400.20;236401;1197;24068;-72
2021/09/24 11:58:18;;;;;;;3.40;1.60;;;;;;;15.28;58.06;98402.48;236601;1190;25118;-71
2021/09/24 12:03:29;;;;;;;4.90;1.60;;;;;;;15.45;57.96;98402.98;236552;1197;22452;-71
2021/09/24 12:08:33;;;;;;;4.20;1.50;;;;;;;15.68;58.03;98400.87;236512;1196;22554;-74
2021/09/24 12:13:39;;;;;;;6.00;1.70;;;;;;;15.66;57.67;98395.45;236516;1190;24164;-73
2021/09/24 12:19:00;;;;;;;5.10;1.80;;;;;;;15.48;57.59;98408.64;236606;1197;24027;-74
2021/09/24 12:24:10;;;;;;;6.10;1.90;;;;;;;15.24;57.89;98392.01;236291;1190;25184;-72
2021/09/24 12:29:22;;;;;;;5.40;1.70;;;;;;;15.09;58.45;98392.09;236298;1197;22784;-75
2021/09/24 12:35:06;;;;;;;7.60;1.80;;;;;;;15.05;58.78;98394.42;236308;1197;22445;-75
2021/09/24 12:40:24;;;;;;;6.20;1.90;;;;;;;15.18;58.55;98386.02;236504;1196;22587;-74
2021/09/24 12:45:30;;;;;;;5.40;1.80;;;;;;;15.38;58.18;98378.19;236564;1196;24155;-76
2021/09/24 12:50:33;;;;;;;4.80;1.30;;;;;;;15.56;57.52;98383.95;236436;1197;25820;-74
2021/09/24 12:55:37;;;;;;;6.60;2.00;;;;;;;15.73;57.08;98401.27;236534;1174;24037;-75
2021/09/24 13:00:39;;;;;;;5.60;1.80;;;;;;;15.85;56.87;98403.52;236587;1190;24078;-75
2021/09/24 13:05:42;;;;;;;8.50;2.70;;;;;;;16.03;56.83;98400.50;236675;1197;25715;-75
2021/09/24 13:10:46;;;;;;;6.00;1.70;;;;;;;16.24;56.58;98396.09;236915;1190;22449;-75
2021/09/24 13:15:52;;;;;;;8.40;2.20;;;;;;;16.47;56.44;98397.23;236924;1197;22545;-77
2021/09/24 13:20:55;;;;;;;6.30;1.80;;;;;;;16.76;55.60;98400.32;236626;1189;22427;-74
2021/09/24 13:25:59;;;;;;;4.90;1.60;;;;;;;17.00;54.07;98397.42;236486;1197;22468;-77
2021/09/24 13:31:22;;;;;;;6.50;1.50;;;;;;;17.12;52.98;98400.60;236589;1197;22529;-75
2021/09/24 13:36:25;;;;;;;6.90;1.50;;;;;;;17.12;52.41;98393.58;236604;1197;24086;-73
2021/09/24 13:41:41;;;;;;;3.30;1.90;;;;;;;17.10;51.85;98399.91;236891;1189;24309;-75
2021/09/24 13:47:01;;;;;;;5.40;2.40;;;;;;;17.11;52.08;98406.23;236500;1190;24082;-75
2021/09/24 13:52:04;;;;;;;5.70;1.70;;;;;;;17.21;52.18;98407.29;236738;1183;24039;-75
2021/09/24 13:57:07;;;;;;;5.10;1.70;;;;;;;17.21;51.13;98404.10;237049;1174;24147;-76
2021/09/24 14:02:09;;;;;;;5.90;1.70;;;;;;;17.08;51.15;98407.61;237223;1196;24031;-75
2021/09/24 14:07:12;;;;;;;6.40;2.40;;;;;;;16.93;51.62;98409.70;236681;1190;25000;-76
2021/09/24 14:12:15;;;;;;;6.10;1.70;;;;;;;16.88;52.14;98412.45;236461;1192;25199;-75
2021/09/24 14:17:22;;;;;;;4.90;1.70;;;;;;;16.90;52.41;98407.42;236570;1197;25766;-77
2021/09/24 14:22:37;;;;;;;9.90;1.90;;;;;;;17.05;52.57;98403.92;236536;1197;23948;-76
2021/09/24 14:27:40;;;;;;;6.30;1.80;;;;;;;17.19;52.29;98400.81;236611;1197;24092;-76
2021/09/24 14:32:44;;;;;;;5.70;1.90;;;;;;;17.26;51.87;98399.95;236860;1197;22427;-76
2021/09/24 14:37:47;;;;;;;7.20;2.10;;;;;;;17.25;52.19;98400.92;236542;1192;25200;-75
2021/09/24 14:42:55;;;;;;;6.10;1.60;;;;;;;17.32;52.48;98395.84;237071;1189;22615;-76
2021/09/24 14:47:58;;;;;;;7.00;1.50;;;;;;;17.39;52.43;98395.52;237317;1189;24182;-75
2021/09/24 14:53:01;;;;;;;5.90;1.90;;;;;;;17.53;52.35;98397.12;236874;1197;22452;-74
2021/09/24 14:58:04;;;;;;;4.60;1.80;;;;;;;17.57;51.74;98393.61;236533;1190;22530;-76
2021/09/24 15:03:07;;;;;;;6.80;1.60;;;;;;;17.54;52.06;98393.05;235695;1198;24025;-75
2021/09/24 15:08:10;;;;;;;7.20;2.10;;;;;;;17.42;52.41;98392.35;236337;1192;22428;-76
2021/09/24 15:13:13;;;;;;;5.90;1.90;;;;;;;17.22;52.39;98392.85;236388;1197;24142;-76
2021/09/24 15:18:18;;;;;;;4.70;1.30;;;;;;;17.01;52.49;98402.50;236407;1197;22446;-80
2021/09/24 15:23:21;;;;;;;8.10;2.20;;;;;;;16.93;52.75;98409.15;236679;1197;22582;-76
2021/09/24 15:28:26;;;;;;;5.70;1.70;;;;;;;16.86;53.09;98417.80;236287;1197;24075;-78
2021/09/24 15:33:29;;;;;;;6.80;2.20;;;;;;;16.65;53.29;98423.63;236329;1197;25389;-76
2021/09/24 15:38:33;;;;;;;8.50;2.20;;;;;;;16.40;53.38;98426.19;236330;1196;24662;-76
2021/09/24 15:43:36;;;;;;;6.90;2.10;;;;;;;16.11;53.84;98428.71;236247;1190;24093;-76
2021/09/24 15:48:38;;;;;;;6.50;2.10;;;;;;;15.87;54.20;98431.80;236032;1197;24021;-74
2021/09/24 15:53:41;;;;;;;6.30;2.60;;;;;;;15.66;54.70;98432.39;236158;1196;22442;-74
2021/09/24 15:58:44;;;;;;;6.00;2.50;;;;;;;15.53;54.89;98438.28;236429;1197;25200;-73
2021/09/24 16:03:47;;;;;;;8.70;2.70;;;;;;;15.45;55.06;98444.53;236656;1190;24238;-75
2021/09/24 16:08:49;;;;;;;7.10;2.50;;;;;;;15.36;55.35;98446.84;236525;1197;22473;-75
2021/09/24 16:13:52;;;;;;;6.20;2.40;;;;;;;15.29;55.34;98452.42;236215;1190;24187;-75
2021/09/24 16:18:56;;;;;;;6.00;2.50;;;;;;;15.20;55.46;98455.17;236491;1197;22448;-75
2021/09/24 16:23:59;;;;;;;22.60;12.90;;;;;;;15.12;55.78;98459.50;236252;1197;22465;-76
2021/09/24 16:29:01;;;;;;;16.50;9.20;;;;;;;15.05;55.91;98462.20;236359;1191;25207;-75
2021/09/24 16:34:04;;;;;;;7.70;3.80;;;;;;;14.97;56.20;98468.83;236647;1192;22479;-76
2021/09/24 16:39:11;;;;;;;5.70;2.60;;;;;;;14.89;56.25;98466.97;236269;1197;24054;-73
2021/09/24 16:44:13;;;;;;;5.90;3.10;;;;;;;14.80;56.41;98466.85;236679;1197;25103;-76
2021/09/24 16:49:18;;;;;;;7.50;2.80;;;;;;;14.72;56.55;98472.77;236404;1191;24085;-76
2021/09/24 16:54:21;;;;;;;6.90;2.90;;;;;;;14.66;56.80;98475.08;236458;1197;22442;-73
2021/09/24 16:59:24;;;;;;;10.20;3.40;;;;;;;14.59;56.95;98489.77;236281;1174;24104;-76
2021/09/24 17:04:28;;;;;;;6.70;2.90;;;;;;;14.52;57.21;98492.83;236601;1197;25022;-76
2021/09/24 17:09:30;;;;;;;4.90;2.60;;;;;;;14.47;57.32;98492.11;236615;1197;24450;-75
2021/09/24 17:14:33;;;;;;;6.50;2.40;;;;;;;14.41;57.67;98491.58;236649;1189;22556;-76
2021/09/24 17:19:36;;;;;;;6.90;2.40;;;;;;;14.34;58.00;98501.13;236544;1197;22422;-77
2021/09/24 17:24:39;;;;;;;4.80;2.00;;;;;;;14.27;58.38;98507.35;236670;1197;24061;-76
2021/09/24 17:29:53;;;;;;;7.10;2.00;;;;;;;14.23;58.79;98512.05;236334;1197;24012;-75
2021/09/24 17:35:21;;;;;;;4.40;1.90;;;;;;;14.21;59.28;98524.84;236604;1197;25119;-74
2021/09/24 17:40:26;;;;;;;4.60;2.30;;;;;;;14.20;59.73;98533.55;237282;1189;24038;-75
2021/09/24 17:45:31;;;;;;;5.20;2.60;;;;;;;14.19;60.20;98538.23;236981;1197;24036;-77
2021/09/24 17:50:35;;;;;;;6.10;2.10;;;;;;;14.17;60.51;98547.30;236885;1197;24069;-76
2021/09/24 17:55:37;;;;;;;6.80;2.10;;;;;;;14.19;61.11;98548.38;236549;1197;24165;-76
2021/09/24 18:00:41;;;;;;;5.50;2.10;;;;;;;14.23;61.40;98554.78;236617;1197;22417;-76
2021/09/24 18:05:45;;;;;;;4.70;2.10;;;;;;;14.26;61.75;98556.48;236745;1189;23248;-76
2021/09/24 18:10:49;;;;;;;6.90;2.20;;;;;;;14.29;61.99;98558.71;236639;1190;24114;-77
2021/09/24 18:15:55;;;;;;;5.50;2.30;;;;;;;14.33;62.32;98563.46;236678;1197;25290;-76
2021/09/24 18:20:58;;;;;;;6.10;2.20;;;;;;;14.36;62.68;98570.52;237198;1197;24103;-77
2021/09/24 18:26:02;;;;;;;4.80;2.00;;;;;;;14.38;63.14;98574.23;236885;1197;22839;-73
2021/09/24 18:31:05;;;;;;;5.50;2.30;;;;;;;14.41;63.36;98583.56;236877;1190;24009;-77
2021/09/24 18:36:09;;;;;;;4.20;2.10;;;;;;;14.43;63.50;98587.14;236736;1192;22676;-75
2021/09/24 18:41:27;;;;;;;6.00;2.20;;;;;;;14.44;63.83;98582.47;236611;1198;24038;-74
2021/09/24 18:46:36;;;;;;;3.50;1.70;;;;;;;14.42;64.04;98585.33;236622;1192;24030;-80
2021/09/24 18:51:40;;;;;;;3.40;1.90;;;;;;;14.42;64.26;98587.84;236922;1197;22424;-76
2021/09/24 18:56:43;;;;;;;4.90;2.30;;;;;;;14.40;64.51;98592.31;236577;1197;24264;-74
2021/09/24 19:01:46;;;;;;;4.40;1.80;;;;;;;14.36;64.80;98595.44;236585;1192;25181;-73
2021/09/24 19:06:51;;;;;;;4.40;1.90;;;;;;;14.34;64.90;98608.15;237299;1189;24031;-73
2021/09/24 19:11:56;;;;;;;5.20;2.00;;;;;;;14.35;65.30;98614.40;236953;1183;22465;-75
2021/09/24 19:17:01;;;;;;;5.20;2.40;;;;;;;14.34;65.52;98626.07;236764;1197;25195;-75
2021/09/24 19:22:04;;;;;;;6.80;2.90;;;;;;;14.32;65.73;98636.31;236626;1197;24744;-76
2021/09/24 19:27:07;;;;;;;8.50;2.90;;;;;;;14.31;65.93;98637.89;236831;1197;22439;-76
2021/09/24 19:32:09;;;;;;;5.80;2.50;;;;;;;14.32;66.21;98642.86;236622;1189;22463;-75
2021/09/24 19:37:12;;;;;;;7.30;2.80;;;;;;;14.30;66.44;98645.46;236817;1183;24091;-76
2021/09/24 19:42:15;;;;;;;6.50;3.00;;;;;;;14.30;66.66;98650.61;236602;1192;24055;-75
2021/09/24 19:47:18;;;;;;;5.90;2.60;;;;;;;14.29;66.77;98651.40;236491;1197;25189;-75
2021/09/24 19:52:21;;;;;;;5.80;2.40;;;;;;;14.28;66.93;98653.02;236433;1197;22598;-73
2021/09/24 19:57:23;;;;;;;7.30;4.00;;;;;;;14.28;67.16;98657.55;236320;1191;22407;-74
2021/09/24 20:02:27;;;;;;;5.70;3.80;;;;;;;14.25;67.26;98658.77;236567;1190;25250;-73
2021/09/24 20:07:33;;;;;;;6.80;3.80;;;;;;;14.19;67.48;98658.52;236773;1193;22527;-76
2021/09/24 20:12:37;;;;;;;7.20;3.50;;;;;;;14.10;67.73;98659.09;236534;1197;25478;-74
2021/09/24 20:17:40;;;;;;;8.20;4.10;;;;;;;14.02;67.99;98656.87;236796;1189;25799;-76
2021/09/24 20:22:56;;;;;;;7.30;4.60;;;;;;;13.96;68.27;98661.38;236444;1197;22790;-76
2021/09/24 20:28:11;;;;;;;9.00;3.20;;;;;;;13.92;68.67;98662.58;236508;1190;22494;-75
2021/09/24 20:33:16;;;;;;;10.40;5.10;;;;;;;13.93;68.82;98665.52;236680;1197;24057;-75
2021/09/24 20:38:20;;;;;;;7.40;4.00;;;;;;;13.91;68.92;98667.73;236558;1193;22420;-75
2021/09/24 20:43:23;;;;;;;6.80;3.20;;;;;;;13.88;69.20;98673.31;236533;1197;24065;-75
2021/09/24 20:48:26;;;;;;;4.20;2.60;;;;;;;13.85;69.47;98673.00;236349;1196;24013;-76
2021/09/24 20:53:29;;;;;;;7.50;2.70;;;;;;;13.78;69.92;98672.77;236387;1197;24152;-76
2021/09/24 20:58:31;;;;;;;7.60;2.80;;;;;;;13.73;70.40;98673.98;236438;1197;22435;-75
2021/09/24 21:03:34;;;;;;;6.50;2.90;;;;;;;13.70;70.55;98673.25;236662;1197;22432;-76
2021/09/24 21:08:37;;;;;;;4.70;2.10;;;;;;;13.71;70.55;98674.36;236680;1197;22724;-75
2021/09/24 21:13:40;;;;;;;4.90;2.40;;;;;;;13.72;70.66;98679.33;236300;1196;24487;-75
2021/09/24 21:18:43;;;;;;;8.80;3.20;;;;;;;13.73;70.73;98677.45;236339;1192;22454;-74
2021/09/24 21:23:46;;;;;;;4.50;2.20;;;;;;;13.72;70.78;98679.77;236570;1192;24555;-75
2021/09/24 21:28:49;;;;;;;4.00;2.20;;;;;;;13.72;70.84;98678.48;236234;1197;22433;-73
2021/09/24 21:33:51;;;;;;;4.80;2.20;;;;;;;13.76;70.88;98678.80;236220;1197;24111;-73
2021/09/24 21:38:54;;;;;;;4.10;2.10;;;;;;;13.80;70.81;98679.77;236377;1197;25120;-74
2021/09/24 21:43:57;;;;;;;4.90;2.40;;;;;;;13.86;70.81;98681.05;236377;1197;24021;-77
2021/09/24 21:49:00;;;;;;;4.70;2.70;;;;;;;13.91;70.78;98681.90;236384;1197;24085;-75
2021/09/24 21:54:02;;;;;;;5.00;2.50;;;;;;;13.92;70.60;98687.45;236207;1197;24057;-76
2021/09/24 21:59:09;;;;;;;3.40;2.30;;;;;;;13.96;70.66;98685.14;236439;1197;24085;-76
2021/09/24 22:04:34;;;;;;;4.90;2.90;;;;;;;13.97;70.55;98685.42;236246;1197;22468;-75
2021/09/24 22:09:40;;;;;;;11.00;7.10;;;;;;;13.97;70.61;98684.73;236373;1197;22441;-75
2021/09/24 22:14:44;;;;;;;5.30;3.40;;;;;;;13.98;70.63;98686.00;236353;1197;22486;-74
2021/09/24 22:19:47;;;;;;;5.20;3.20;;;;;;;14.00;70.60;98688.19;236257;1197;24094;-75
2021/09/24 22:24:49;;;;;;;4.10;3.00;;;;;;;14.03;70.60;98683.48;236369;1194;24053;-75
2021/09/24 22:29:53;;;;;;;4.80;2.50;;;;;;;14.04;70.57;98686.90;236399;1196;25011;-75
2021/09/24 22:34:56;;;;;;;4.80;2.70;;;;;;;14.06;70.54;98684.45;236459;1197;24171;-77
2021/09/24 22:39:59;;;;;;;7.80;3.70;;;;;;;14.07;70.54;98682.79;236730;1197;24184;-74
2021/09/24 22:45:07;;;;;;;6.00;3.40;;;;;;;14.06;70.66;98685.14;236521;1197;22448;-74
2021/09/24 22:50:11;;;;;;;6.50;3.40;;;;;;;14.05;70.67;98685.10;236237;1197;22483;-75
2021/09/24 22:55:15;;;;;;;4.10;2.80;;;;;;;13.98;70.81;98681.91;236529;1193;24012;-75
2021/09/24 23:00:18;;;;;;;6.40;3.10;;;;;;;13.93;70.86;98684.59;236418;1197;22475;-75
2021/09/24 23:05:22;;;;;;;5.10;2.80;;;;;;;13.89;71.03;98688.20;236420;1193;22462;-75
2021/09/24 23:10:25;;;;;;;4.30;2.80;;;;;;;13.88;71.12;98687.91;236331;1197;25383;-73
2021/09/24 23:15:29;;;;;;;5.40;2.90;;;;;;;13.91;71.15;98690.30;236310;1197;24041;-73
2021/09/24 23:20:32;;;;;;;6.30;3.60;;;;;;;13.92;71.12;98691.50;236407;1190;24075;-74
2021/09/24 23:25:35;;;;;;;6.00;2.90;;;;;;;13.90;71.22;98686.96;236468;1197;22485;-75
2021/09/24 23:30:38;;;;;;;4.70;2.80;;;;;;;13.91;71.21;98686.20;236269;1197;22439;-73
2021/09/24 23:35:41;;;;;;;5.00;3.40;;;;;;;13.94;71.27;98685.95;236348;1190;25281;-75
2021/09/24 23:40:49;;;;;;;7.20;2.70;;;;;;;13.95;71.16;98683.65;236343;1197;25210;-75